sensor_id;sensor_type;location;lat;lon;timestamp;pressure;altitude;pressure_sealevel;temperature;humidity
60099;BME280;62818;49.394;8.686;2023-01-27T00:00:14;100814.50;;;1.24;100.00
60099;BME280;62818;49.394;8.686;2023-01-27T00:01:16;100812.41;;;1.29;100.00
60099;BME280;62818;49.394;8.686;2023-01-27T00:02:16;100810.19;;;0.60;100.00
60099;BME280;62818;49.394;8.686;2023-01-27T00:03:17;100809.56;;;0.82;100.00
60099;BME280;62818;49.394;8.686;2023-01-27T00:04:18;100811.63;;;0.64;100.00
60099;BME280;62818;49.394;8.686;2023-01-27T00:05:19;100812.53;;;0.90;100.00
60099;BME280;62818;49.394;8.686;2023-01-27T00:06:19;100815.69;;;0.43;100.00
60099;BME280;62818;49.394;8.686;2023-01-27T00:07:20;100813.19;;;0.42;100.00
60099;BME280;62818;49.394;8.686;2023-01-27T00:08:20;100814.97;;;0.15;100.00
60099;BME280;62818;49.394;8.686;2023-01-27T00:09:21;100818.19;;;0.18;100.00
60099;BME280;62818;49.394;8.686;2023-01-27T00:10:21;100819.78;;;0.21;100.00
60099;BME280;62818;49.394;8.686;2023-01-27T00:11:22;100817.91;;;0.23;100.00
60099;BME280;62818;49.394;8.686;2023-01-27T00:12:42;100818.44;;;0.28;100.00
60099;BME280;62818;49.394;8.686;2023-01-27T00:14:02;100819.78;;;0.21;100.00
60099;BME280;62818;49.394;8.686;2023-01-27T00:15:03;100820.78;;;0.18;100.00
60099;BME280;62818;49.394;8.686;2023-01-27T00:16:05;100820.75;;;0.06;100.00
60099;BME280;62818;49.394;8.686;2023-01-27T00:17:06;100827.84;;;0.04;100.00
60099;BME280;62818;49.394;8.686;2023-01-27T00:18:07;100816.38;;;0.06;100.00
60099;BME280;62818;49.394;8.686;2023-01-27T00:19:07;100815.72;;;0.03;100.00
60099;BME280;62818;49.394;8.686;2023-01-27T00:20:08;100815.50;;;-0.07;100.00
60099;BME280;62818;49.394;8.686;2023-01-27T00:21:09;100812.34;;;-0.12;100.00
60099;BME280;62818;49.394;8.686;2023-01-27T00:22:30;100812.78;;;-0.06;100.00
60099;BME280;62818;49.394;8.686;2023-01-27T00:23:52;100815.94;;;-0.01;100.00
60099;BME280;62818;49.394;8.686;2023-01-27T00:25:11;100815.28;;;-0.04;100.00
60099;BME280;62818;49.394;8.686;2023-01-27T00:26:14;100807.56;;;-0.06;100.00
60099;BME280;62818;49.394;8.686;2023-01-27T00:27:16;100811.88;;;-0.05;100.00
60099;BME280;62818;49.394;8.686;2023-01-27T00:28:16;100803.69;;;-0.13;100.00
60099;BME280;62818;49.394;8.686;2023-01-27T00:29:22;100809.63;;;-0.11;100.00
60099;BME280;62818;49.394;8.686;2023-01-27T00:30:22;100796.75;;;0.00;100.00
60099;BME280;62818;49.394;8.686;2023-01-27T00:31:23;100802.53;;;0.06;100.00
60099;BME280;62818;49.394;8.686;2023-01-27T00:32:42;100802.38;;;-0.06;100.00
60099;BME280;62818;49.394;8.686;2023-01-27T00:34:02;100802.91;;;-0.01;100.00
60099;BME280;62818;49.394;8.686;2023-01-27T00:35:08;100805.66;;;0.11;100.00
60099;BME280;62818;49.394;8.686;2023-01-27T00:36:08;100803.06;;;0.11;100.00
60099;BME280;62818;49.394;8.686;2023-01-27T00:37:09;100805.66;;;0.11;100.00
60099;BME280;62818;49.394;8.686;2023-01-27T00:38:09;100799.06;;;0.32;100.00
60099;BME280;62818;49.394;8.686;2023-01-27T00:39:10;100802.38;;;0.21;100.00
60099;BME280;62818;49.394;8.686;2023-01-27T00:40:14;100804.72;;;0.12;100.00
60099;BME280;62818;49.394;8.686;2023-01-27T00:41:15;100805.84;;;0.08;100.00
60099;BME280;62818;49.394;8.686;2023-01-27T00:42:19;100799.44;;;0.13;100.00
60099;BME280;62818;49.394;8.686;2023-01-27T00:43:19;100806.56;;;-0.03;100.00
60099;BME280;62818;49.394;8.686;2023-01-27T00:44:19;100810.28;;;-0.07;100.00
60099;BME280;62818;49.394;8.686;2023-01-27T00:45:20;100801.53;;;-0.06;100.00
60099;BME280;62818;49.394;8.686;2023-01-27T00:46:41;100802.38;;;-0.06;100.00
60099;BME280;62818;49.394;8.686;2023-01-27T00:47:42;100804.41;;;-0.11;100.00
60099;BME280;62818;49.394;8.686;2023-01-27T00:48:43;100794.16;;;0.00;100.00
60099;BME280;62818;49.394;8.686;2023-01-27T00:49:44;100797.72;;;-0.01;100.00
60099;BME280;62818;49.394;8.686;2023-01-27T00:50:44;100794.72;;;-0.09;100.00
60099;BME280;62818;49.394;8.686;2023-01-27T00:51:45;100789.50;;;0.06;100.00
60099;BME280;62818;49.394;8.686;2023-01-27T00:52:45;100793.56;;;0.10;100.00
60099;BME280;62818;49.394;8.686;2023-01-27T00:53:47;100790.56;;;0.16;100.00
60099;BME280;62818;49.394;8.686;2023-01-27T00:54:48;100789.97;;;0.25;100.00
60099;BME280;62818;49.394;8.686;2023-01-27T00:55:48;100787.94;;;0.16;100.00
60099;BME280;62818;49.394;8.686;2023-01-27T00:56:48;100790.38;;;0.19;100.00
60099;BME280;62818;49.394;8.686;2023-01-27T00:57:49;100786.69;;;0.09;100.00
60099;BME280;62818;49.394;8.686;2023-01-27T00:58:49;100798.22;;;0.05;100.00
60099;BME280;62818;49.394;8.686;2023-01-27T00:59:50;100785.88;;;0.21;100.00
60099;BME280;62818;49.394;8.686;2023-01-27T01:00:55;100790.56;;;0.16;100.00
60099;BME280;62818;49.394;8.686;2023-01-27T01:01:58;100792.97;;;0.19;100.00
60099;BME280;62818;49.394;8.686;2023-01-27T01:02:59;100782.88;;;0.27;100.00
60099;BME280;62818;49.394;8.686;2023-01-27T01:03:59;100789.44;;;0.20;100.00
60099;BME280;62818;49.394;8.686;2023-01-27T01:05:00;100789.16;;;0.37;100.00
60099;BME280;62818;49.394;8.686;2023-01-27T01:06:03;100789.78;;;0.28;100.00
60099;BME280;62818;49.394;8.686;2023-01-27T01:07:06;100782.69;;;0.42;100.00
60099;BME280;62818;49.394;8.686;2023-01-27T01:08:06;100793.81;;;0.71;100.00
60099;BME280;62818;49.394;8.686;2023-01-27T01:09:07;100785.03;;;0.97;100.00
60099;BME280;62818;49.394;8.686;2023-01-27T01:10:08;100790.19;;;0.99;100.00
60099;BME280;62818;49.394;8.686;2023-01-27T01:11:12;100782.94;;;0.64;100.00
60099;BME280;62818;49.394;8.686;2023-01-27T01:12:13;100786.88;;;0.45;100.00
60099;BME280;62818;49.394;8.686;2023-01-27T01:13:14;100780.63;;;0.35;100.00
60099;BME280;62818;49.394;8.686;2023-01-27T01:14:14;100781.09;;;0.79;100.00
60099;BME280;62818;49.394;8.686;2023-01-27T01:15:15;100789.28;;;0.48;100.00
60099;BME280;62818;49.394;8.686;2023-01-27T01:16:20;100787.09;;;0.42;100.00
60099;BME280;62818;49.394;8.686;2023-01-27T01:17:22;100785.06;;;0.85;100.00
60099;BME280;62818;49.394;8.686;2023-01-27T01:18:23;100790.28;;;0.72;100.00
60099;BME280;62818;49.394;8.686;2023-01-27T01:19:24;100789.72;;;0.54;100.00
60099;BME280;62818;49.394;8.686;2023-01-27T01:20:24;100786.31;;;0.79;100.00
60099;BME280;62818;49.394;8.686;2023-01-27T01:21:25;100792.16;;;0.95;100.00
60099;BME280;62818;49.394;8.686;2023-01-27T01:22:25;100791.50;;;0.66;100.00
60099;BME280;62818;49.394;8.686;2023-01-27T01:23:27;100790.22;;;0.47;100.00
60099;BME280;62818;49.394;8.686;2023-01-27T01:24:28;100796.09;;;0.63;100.00
60099;BME280;62818;49.394;8.686;2023-01-27T01:25:28;100795.78;;;0.80;100.00
60099;BME280;62818;49.394;8.686;2023-01-27T01:26:29;100784.72;;;0.64;100.00
60099;BME280;62818;49.394;8.686;2023-01-27T01:27:29;100791.94;;;0.98;100.00
60099;BME280;62818;49.394;8.686;2023-01-27T01:28:30;100789.84;;;1.28;100.00
60099;BME280;62818;49.394;8.686;2023-01-27T01:29:30;100788.75;;;1.43;100.00
60099;BME280;62818;49.394;8.686;2023-01-27T01:30:36;100789.81;;;1.54;100.00
60099;BME280;62818;49.394;8.686;2023-01-27T01:31:37;100793.78;;;1.46;100.00
60099;BME280;62818;49.394;8.686;2023-01-27T01:32:37;100785.81;;;1.61;100.00
60099;BME280;62818;49.394;8.686;2023-01-27T01:33:38;100791.69;;;1.52;100.00
60099;BME280;62818;49.394;8.686;2023-01-27T01:34:39;100793.84;;;0.84;100.00
60099;BME280;62818;49.394;8.686;2023-01-27T01:35:39;100793.81;;;0.71;100.00
60099;BME280;62818;49.394;8.686;2023-01-27T01:36:40;100787.53;;;0.61;100.00
60099;BME280;62818;49.394;8.686;2023-01-27T01:37:40;100786.28;;;0.66;100.00
60099;BME280;62818;49.394;8.686;2023-01-27T01:38:41;100786.22;;;1.06;100.00
60099;BME280;62818;49.394;8.686;2023-01-27T01:39:42;100792.94;;;0.58;100.00
60099;BME280;62818;49.394;8.686;2023-01-27T01:40:43;100783.59;;;0.68;100.00
60099;BME280;62818;49.394;8.686;2023-01-27T01:41:44;100781.19;;;1.15;100.00
60099;BME280;62818;49.394;8.686;2023-01-27T01:44:26;100786.28;;;1.29;100.00
60099;BME280;62818;49.394;8.686;2023-01-27T01:46:31;100789.31;;;1.11;100.00
60099;BME280;62818;49.394;8.686;2023-01-27T01:47:32;100794.22;;;0.77;100.00
60099;BME280;62818;49.394;8.686;2023-01-27T01:48:35;100791.50;;;0.66;100.00
60099;BME280;62818;49.394;8.686;2023-01-27T01:49:43;100784.41;;;0.56;100.00
60099;BME280;62818;49.394;8.686;2023-01-27T01:51:13;100788.59;;;0.58;100.00
60099;BME280;62818;49.394;8.686;2023-01-27T01:52:19;100793.78;;;0.58;100.00
60099;BME280;62818;49.394;8.686;2023-01-27T01:53:22;100791.91;;;0.73;100.00
60099;BME280;62818;49.394;8.686;2023-01-27T01:54:32;100787.97;;;0.55;100.00
60099;BME280;62818;49.394;8.686;2023-01-27T01:55:38;100785.25;;;0.82;100.00
60099;BME280;62818;49.394;8.686;2023-01-27T01:56:46;100787.78;;;0.70;100.00
60099;BME280;62818;49.394;8.686;2023-01-27T01:57:49;100793.53;;;0.88;100.00
60099;BME280;62818;49.394;8.686;2023-01-27T01:58:52;100782.09;;;0.64;100.00
60099;BME280;62818;49.394;8.686;2023-01-27T02:00:03;100787.41;;;0.37;100.00
60099;BME280;62818;49.394;8.686;2023-01-27T02:01:06;100782.69;;;0.42;100.00
60099;BME280;62818;49.394;8.686;2023-01-27T02:02:11;100788.22;;;0.38;100.00
60099;BME280;62818;49.394;8.686;2023-01-27T02:03:15;100785.00;;;0.47;100.00
60099;BME280;62818;49.394;8.686;2023-01-27T02:04:18;100786.69;;;0.48;100.00
60099;BME280;62818;49.394;8.686;2023-01-27T02:05:32;100781.06;;;0.54;100.00
60099;BME280;62818;49.394;8.686;2023-01-27T02:06:46;100773.53;;;0.49;100.00
60099;BME280;62818;49.394;8.686;2023-01-27T02:07:57;100787.31;;;0.64;100.00
60099;BME280;62818;49.394;8.686;2023-01-27T02:09:20;100780.63;;;0.47;100.00
60099;BME280;62818;49.394;8.686;2023-01-27T02:10:23;100781.66;;;0.45;100.00
60099;BME280;62818;49.394;8.686;2023-01-27T02:11:24;100792.63;;;0.50;100.00
60099;BME280;62818;49.394;8.686;2023-01-27T02:12:24;100779.72;;;0.61;100.00
60099;BME280;62818;49.394;8.686;2023-01-27T02:13:25;100774.50;;;0.48;100.00
60099;BME280;62818;49.394;8.686;2023-01-27T02:14:25;100780.25;;;0.66;100.00
60099;BME280;62818;49.394;8.686;2023-01-27T02:15:28;100785.06;;;0.72;100.00
60099;BME280;62818;49.394;8.686;2023-01-27T02:16:30;100781.78;;;0.56;100.00
60099;BME280;62818;49.394;8.686;2023-01-27T02:17:32;100780.94;;;0.55;100.00
60099;BME280;62818;49.394;8.686;2023-01-27T02:18:32;100779.59;;;0.50;100.00
60099;BME280;62818;49.394;8.686;2023-01-27T02:21:19;100778.16;;;0.71;100.00
60099;BME280;62818;49.394;8.686;2023-01-27T02:22:29;100774.50;;;0.73;100.00
60099;BME280;62818;49.394;8.686;2023-01-27T02:23:59;100782.22;;;0.50;100.00
60099;BME280;62818;49.394;8.686;2023-01-27T02:25:15;100780.22;;;0.53;100.00
60099;BME280;62818;49.394;8.686;2023-01-27T02:26:28;100783.13;;;0.49;100.00
60099;BME280;62818;49.394;8.686;2023-01-27T02:27:31;100776.91;;;0.89;100.00
60099;BME280;62818;49.394;8.686;2023-01-27T02:28:32;100781.50;;;0.73;100.00
60099;BME280;62818;49.394;8.686;2023-01-27T02:29:33;100778.75;;;0.62;100.00
60099;BME280;62818;49.394;8.686;2023-01-27T02:30:33;100777.34;;;0.83;100.00
60099;BME280;62818;49.394;8.686;2023-01-27T02:31:34;100772.63;;;1.13;100.00
60099;BME280;62818;49.394;8.686;2023-01-27T02:32:34;100776.59;;;1.06;100.00
60099;BME280;62818;49.394;8.686;2023-01-27T02:33:35;100776.50;;;0.83;100.00
60099;BME280;62818;49.394;8.686;2023-01-27T02:34:36;100772.19;;;0.56;100.00
60099;BME280;62818;49.394;8.686;2023-01-27T02:35:41;100771.91;;;0.61;100.00
60099;BME280;62818;49.394;8.686;2023-01-27T02:36:53;100768.44;;;0.48;100.00
60099;BME280;62818;49.394;8.686;2023-01-27T02:37:56;100767.47;;;0.49;100.00
60099;BME280;62818;49.394;8.686;2023-01-27T02:38:58;100773.72;;;0.46;100.00
60099;BME280;62818;49.394;8.686;2023-01-27T02:40:02;100768.22;;;0.51;100.00
60099;BME280;62818;49.394;8.686;2023-01-27T02:42:28;100769.63;;;0.94;100.00
60099;BME280;62818;49.394;8.686;2023-01-27T02:43:28;100772.06;;;1.33;100.00
60099;BME280;62818;49.394;8.686;2023-01-27T02:44:29;100772.44;;;0.79;100.00
60099;BME280;62818;49.394;8.686;2023-01-27T02:45:30;100763.03;;;0.63;100.00
60099;BME280;62818;49.394;8.686;2023-01-27T02:46:31;100775.13;;;0.64;100.00
60099;BME280;62818;49.394;8.686;2023-01-27T02:47:31;100772.09;;;0.58;100.00
60099;BME280;62818;49.394;8.686;2023-01-27T02:48:32;100767.63;;;0.72;100.00
60099;BME280;62818;49.394;8.686;2023-01-27T02:49:32;100773.66;;;0.73;100.00
60099;BME280;62818;49.394;8.686;2023-01-27T02:50:33;100779.63;;;0.88;100.00
60099;BME280;62818;49.394;8.686;2023-01-27T02:51:33;100780.25;;;0.66;100.00
60099;BME280;62818;49.394;8.686;2023-01-27T02:52:34;100775.44;;;0.60;100.00
60099;BME280;62818;49.394;8.686;2023-01-27T02:53:35;100774.81;;;0.69;100.00
60099;BME280;62818;49.394;8.686;2023-01-27T02:54:35;100773.13;;;0.55;100.00
60099;BME280;62818;49.394;8.686;2023-01-27T02:55:36;100766.03;;;0.57;100.00
60099;BME280;62818;49.394;8.686;2023-01-27T02:56:36;100771.78;;;0.62;100.00
60099;BME280;62818;49.394;8.686;2023-01-27T02:57:37;100766.88;;;0.58;100.00
60099;BME280;62818;49.394;8.686;2023-01-27T02:58:37;100765.41;;;0.54;100.00
60099;BME280;62818;49.394;8.686;2023-01-27T02:59:37;100763.66;;;0.67;100.00
60099;BME280;62818;49.394;8.686;2023-01-27T03:00:38;100773.66;;;0.73;100.00
60099;BME280;62818;49.394;8.686;2023-01-27T03:01:39;100770.44;;;0.82;100.00
60099;BME280;62818;49.394;8.686;2023-01-27T03:02:39;100770.66;;;0.92;100.00
60099;BME280;62818;49.394;8.686;2023-01-27T03:03:40;100768.56;;;0.71;100.00
60099;BME280;62818;49.394;8.686;2023-01-27T03:04:43;100770.31;;;0.71;100.00
60099;BME280;62818;49.394;8.686;2023-01-27T03:05:44;100764.06;;;0.48;100.00
60099;BME280;62818;49.394;8.686;2023-01-27T03:06:45;100768.50;;;0.46;100.00
60099;BME280;62818;49.394;8.686;2023-01-27T03:07:45;100761.88;;;0.67;100.00
60099;BME280;62818;49.394;8.686;2023-01-27T03:08:46;100771.47;;;1.17;100.00
60099;BME280;62818;49.394;8.686;2023-01-27T03:09:46;100775.03;;;0.91;100.00
60099;BME280;62818;49.394;8.686;2023-01-27T03:10:51;100768.66;;;0.70;100.00
60099;BME280;62818;49.394;8.686;2023-01-27T03:11:53;100766.06;;;0.70;100.00
60099;BME280;62818;49.394;8.686;2023-01-27T03:13:11;100769.41;;;0.72;100.00
60099;BME280;62818;49.394;8.686;2023-01-27T03:14:12;100768.34;;;0.62;100.00
60099;BME280;62818;49.394;8.686;2023-01-27T03:15:12;100770.00;;;0.63;100.00
60099;BME280;62818;49.394;8.686;2023-01-27T03:16:31;100774.63;;;0.72;100.00
60099;BME280;62818;49.394;8.686;2023-01-27T03:17:50;100777.94;;;0.61;100.00
60099;BME280;62818;49.394;8.686;2023-01-27T03:19:10;100775.22;;;0.63;100.00
60099;BME280;62818;49.394;8.686;2023-01-27T03:20:11;100778.03;;;0.60;100.00
60099;BME280;62818;49.394;8.686;2023-01-27T03:21:12;100772.94;;;0.58;100.00
60099;BME280;62818;49.394;8.686;2023-01-27T03:22:13;100775.22;;;0.63;100.00
60099;BME280;62818;49.394;8.686;2023-01-27T03:23:15;100774.91;;;0.55;100.00
60099;BME280;62818;49.394;8.686;2023-01-27T03:24:18;100771.91;;;0.61;100.00
60099;BME280;62818;49.394;8.686;2023-01-27T03:25:19;100778.47;;;0.66;100.00
60099;BME280;62818;49.394;8.686;2023-01-27T03:26:20;100781.91;;;0.67;100.00
60099;BME280;62818;49.394;8.686;2023-01-27T03:27:21;100781.28;;;0.63;100.00
60099;BME280;62818;49.394;8.686;2023-01-27T03:28:21;100780.16;;;0.67;100.00
60099;BME280;62818;49.394;8.686;2023-01-27T03:29:21;100776.69;;;0.67;100.00
60099;BME280;62818;49.394;8.686;2023-01-27T03:30:41;100784.22;;;0.59;100.00
60099;BME280;62818;49.394;8.686;2023-01-27T03:31:41;100779.19;;;0.56;100.00
60099;BME280;62818;49.394;8.686;2023-01-27T03:32:42;100783.16;;;0.61;100.00
60099;BME280;62818;49.394;8.686;2023-01-27T03:33:45;100779.19;;;0.56;100.00
60099;BME280;62818;49.394;8.686;2023-01-27T03:34:46;100784.63;;;0.65;100.00
60099;BME280;62818;49.394;8.686;2023-01-27T03:35:47;100786.63;;;0.87;100.00
60099;BME280;62818;49.394;8.686;2023-01-27T03:36:47;100778.38;;;0.68;100.00
60099;BME280;62818;49.394;8.686;2023-01-27T03:38:11;100784.50;;;0.67;100.00
60099;BME280;62818;49.394;8.686;2023-01-27T03:39:31;100775.84;;;0.54;100.00
60099;BME280;62818;49.394;8.686;2023-01-27T03:40:50;100778.75;;;0.62;100.00
60099;BME280;62818;49.394;8.686;2023-01-27T03:42:09;100781.06;;;0.66;100.00
60099;BME280;62818;49.394;8.686;2023-01-27T03:43:28;100786.09;;;0.57;100.00
60099;BME280;62818;49.394;8.686;2023-01-27T03:44:47;100780.94;;;0.43;100.00
60099;BME280;62818;49.394;8.686;2023-01-27T03:46:06;100780.94;;;0.43;100.00
60099;BME280;62818;49.394;8.686;2023-01-27T03:47:17;100781.72;;;0.70;100.00
60099;BME280;62818;49.394;8.686;2023-01-27T03:48:18;100782.41;;;0.47;100.00
60099;BME280;62818;49.394;8.686;2023-01-27T03:49:20;100783.97;;;0.37;100.00
60099;BME280;62818;49.394;8.686;2023-01-27T03:50:20;100800.88;;;0.44;100.00
60099;BME280;62818;49.394;8.686;2023-01-27T03:51:36;100787.47;;;0.36;100.00
60099;BME280;62818;49.394;8.686;2023-01-27T03:52:37;100789.78;;;0.40;100.00
60099;BME280;62818;49.394;8.686;2023-01-27T03:53:37;100794.16;;;0.40;100.00
60099;BME280;62818;49.394;8.686;2023-01-27T03:54:38;100785.22;;;0.44;100.00
60099;BME280;62818;49.394;8.686;2023-01-27T03:55:38;100786.44;;;0.26;100.00
60099;BME280;62818;49.394;8.686;2023-01-27T03:56:39;100796.13;;;0.24;100.00
60099;BME280;62818;49.394;8.686;2023-01-27T03:57:39;100793.69;;;0.21;100.00
60099;BME280;62818;49.394;8.686;2023-01-27T03:58:40;100800.19;;;0.28;100.00
60099;BME280;62818;49.394;8.686;2023-01-27T03:59:41;100792.69;;;0.36;100.00
60099;BME280;62818;49.394;8.686;2023-01-27T04:00:42;100799.91;;;0.32;100.00
60099;BME280;62818;49.394;8.686;2023-01-27T04:01:44;100807.72;;;0.32;100.00
60099;BME280;62818;49.394;8.686;2023-01-27T04:02:45;100807.81;;;0.31;100.00
60099;BME280;62818;49.394;8.686;2023-01-27T04:04:04;100797.69;;;0.26;100.00
60099;BME280;62818;49.394;8.686;2023-01-27T04:05:23;100807.31;;;0.38;100.00
60099;BME280;62818;49.394;8.686;2023-01-27T04:06:42;100803.78;;;0.39;100.00
60099;BME280;62818;49.394;8.686;2023-01-27T04:07:57;100794.81;;;0.43;100.00
60099;BME280;62818;49.394;8.686;2023-01-27T04:08:58;100803.25;;;0.47;100.00
60099;BME280;62818;49.394;8.686;2023-01-27T04:09:58;100806.09;;;0.44;100.00
60099;BME280;62818;49.394;8.686;2023-01-27T04:11:05;100800.88;;;0.44;100.00
60099;BME280;62818;49.394;8.686;2023-01-27T04:12:24;100807.31;;;0.38;100.00
60099;BME280;62818;49.394;8.686;2023-01-27T04:13:24;100800.94;;;0.30;100.00
60099;BME280;62818;49.394;8.686;2023-01-27T04:14:29;100805.72;;;0.36;100.00
60099;BME280;62818;49.394;8.686;2023-01-27T04:15:37;100802.47;;;0.20;100.00
60099;BME280;62818;49.394;8.686;2023-01-27T04:16:38;100801.47;;;0.35;100.00
60099;BME280;62818;49.394;8.686;2023-01-27T04:17:38;100797.03;;;0.23;100.00
60099;BME280;62818;49.394;8.686;2023-01-27T04:18:40;100804.25;;;0.19;100.00
60099;BME280;62818;49.394;8.686;2023-01-27T04:19:41;100806.69;;;0.35;100.00
60099;BME280;62818;49.394;8.686;2023-01-27T04:20:42;100806.28;;;0.41;100.00
60099;BME280;62818;49.394;8.686;2023-01-27T04:21:42;100799.91;;;0.45;100.00
60099;BME280;62818;49.394;8.686;2023-01-27T04:22:43;100803.00;;;0.25;100.00
60099;BME280;62818;49.394;8.686;2023-01-27T04:23:44;100803.09;;;0.23;100.00
60099;BME280;62818;49.394;8.686;2023-01-27T04:24:44;100790.91;;;0.24;100.00
60099;BME280;62818;49.394;8.686;2023-01-27T04:25:44;100800.19;;;0.28;100.00
60099;BME280;62818;49.394;8.686;2023-01-27T04:26:48;100792.25;;;0.29;100.00
60099;BME280;62818;49.394;8.686;2023-01-27T04:27:53;100796.03;;;0.38;100.00
60099;BME280;62818;49.394;8.686;2023-01-27T04:28:54;100799.59;;;0.37;100.00
60099;BME280;62818;49.394;8.686;2023-01-27T04:29:54;100791.03;;;0.35;100.00
60099;BME280;62818;49.394;8.686;2023-01-27T04:30:57;100801.06;;;0.41;100.00
60099;BME280;62818;49.394;8.686;2023-01-27T04:31:58;100800.34;;;0.39;100.00
60099;BME280;62818;49.394;8.686;2023-01-27T04:32:58;100796.25;;;0.35;100.00
60099;BME280;62818;49.394;8.686;2023-01-27T04:34:01;100802.75;;;0.42;100.00
60099;BME280;62818;49.394;8.686;2023-01-27T04:35:02;100804.22;;;0.46;100.00
60099;BME280;62818;49.394;8.686;2023-01-27T04:36:02;100802.25;;;0.62;100.00
60099;BME280;62818;49.394;8.686;2023-01-27T04:37:04;100796.50;;;0.57;100.00
60099;BME280;62818;49.394;8.686;2023-01-27T04:38:06;100801.31;;;0.63;100.00
60099;BME280;62818;49.394;8.686;2023-01-27T04:39:06;100793.91;;;0.57;100.00
60099;BME280;62818;49.394;8.686;2023-01-27T04:40:08;100796.59;;;0.55;100.00
60099;BME280;62818;49.394;8.686;2023-01-27T04:41:09;100796.09;;;0.63;100.00
60099;BME280;62818;49.394;8.686;2023-01-27T04:42:10;100804.25;;;0.71;100.00
60099;BME280;62818;49.394;8.686;2023-01-27T04:43:10;100801.63;;;0.58;100.00
60099;BME280;62818;49.394;8.686;2023-01-27T04:44:11;100801.94;;;0.54;100.00
60099;BME280;62818;49.394;8.686;2023-01-27T04:45:12;100801.34;;;1.01;100.00
60099;BME280;62818;49.394;8.686;2023-01-27T04:46:12;100810.28;;;1.34;100.00
60099;BME280;62818;49.394;8.686;2023-01-27T04:47:13;100814.28;;;1.02;100.00
60099;BME280;62818;49.394;8.686;2023-01-27T04:48:13;100809.25;;;0.87;100.00
60099;BME280;62818;49.394;8.686;2023-01-27T04:49:14;100807.56;;;0.73;100.00
60099;BME280;62818;49.394;8.686;2023-01-27T04:50:15;100811.97;;;0.72;100.00
60099;BME280;62818;49.394;8.686;2023-01-27T04:51:15;100807.81;;;0.70;100.00
60099;BME280;62818;49.394;8.686;2023-01-27T04:52:16;100806.41;;;0.64;100.00
60099;BME280;62818;49.394;8.686;2023-01-27T04:53:17;100808.31;;;0.62;100.00
60099;BME280;62818;49.394;8.686;2023-01-27T04:54:17;100814.03;;;0.55;100.00
60099;BME280;62818;49.394;8.686;2023-01-27T04:55:17;100816.84;;;0.52;100.00
60099;BME280;62818;49.394;8.686;2023-01-27T04:56:27;100816.66;;;0.55;100.00
60099;BME280;62818;49.394;8.686;2023-01-27T04:57:31;100816.00;;;0.64;100.00
60099;BME280;62818;49.394;8.686;2023-01-27T04:58:32;100810.50;;;0.68;100.00
60099;BME280;62818;49.394;8.686;2023-01-27T04:59:32;100819.88;;;0.71;100.00
60099;BME280;62818;49.394;8.686;2023-01-27T05:00:33;100815.31;;;0.74;100.00
60099;BME280;62818;49.394;8.686;2023-01-27T05:01:34;100820.53;;;0.87;100.00
60099;BME280;62818;49.394;8.686;2023-01-27T05:02:34;100822.22;;;0.88;100.00
60099;BME280;62818;49.394;8.686;2023-01-27T05:03:34;100812.38;;;1.17;100.00
60099;BME280;62818;49.394;8.686;2023-01-27T05:04:35;100816.47;;;0.83;100.00
60099;BME280;62818;49.394;8.686;2023-01-27T05:05:37;100821.09;;;0.92;100.00
60099;BME280;62818;49.394;8.686;2023-01-27T05:06:37;100817.81;;;0.76;100.00
60099;BME280;62818;49.394;8.686;2023-01-27T05:07:38;100815.81;;;0.67;100.00
60099;BME280;62818;49.394;8.686;2023-01-27T05:08:39;100814.66;;;0.58;100.00
60099;BME280;62818;49.394;8.686;2023-01-27T05:09:39;100811.75;;;0.63;100.00
60099;BME280;62818;49.394;8.686;2023-01-27T05:10:42;100817.47;;;0.55;100.00
60099;BME280;62818;49.394;8.686;2023-01-27T05:11:44;100816.47;;;0.83;100.00
60099;BME280;62818;49.394;8.686;2023-01-27T05:12:44;100814.47;;;0.74;100.00
60099;BME280;62818;49.394;8.686;2023-01-27T05:13:45;100812.59;;;0.63;100.00
60099;BME280;62818;49.394;8.686;2023-01-27T05:14:46;100815.91;;;0.53;100.00
60099;BME280;62818;49.394;8.686;2023-01-27T05:15:47;100821.16;;;0.65;100.00
60099;BME280;62818;49.394;8.686;2023-01-27T05:16:47;100817.81;;;0.63;100.00
60099;BME280;62818;49.394;8.686;2023-01-27T05:17:48;100814.03;;;0.55;100.00
60099;BME280;62818;49.394;8.686;2023-01-27T05:18:49;100815.44;;;0.46;100.00
60099;BME280;62818;49.394;8.686;2023-01-27T05:19:51;100817.88;;;0.49;100.00
60099;BME280;62818;49.394;8.686;2023-01-27T05:20:51;100816.09;;;0.50;100.00
60099;BME280;62818;49.394;8.686;2023-01-27T05:21:52;100825.81;;;0.48;100.00
60099;BME280;62818;49.394;8.686;2023-01-27T05:22:52;100820.06;;;0.55;100.00
60099;BME280;62818;49.394;8.686;2023-01-27T05:24:12;100819.84;;;0.46;100.00
60099;BME280;62818;49.394;8.686;2023-01-27T05:25:13;100824.25;;;0.58;100.00
60099;BME280;62818;49.394;8.686;2023-01-27T05:26:24;100816.66;;;0.67;100.00
60099;BME280;62818;49.394;8.686;2023-01-27T05:27:26;100814.28;;;0.77;100.00
60099;BME280;62818;49.394;8.686;2023-01-27T05:28:27;100817.00;;;1.13;100.00
60099;BME280;62818;49.394;8.686;2023-01-27T05:29:27;100809.91;;;1.03;100.00
60099;BME280;62818;49.394;8.686;2023-01-27T05:30:28;100809.25;;;0.74;100.00
60099;BME280;62818;49.394;8.686;2023-01-27T05:31:29;100817.72;;;0.77;100.00
60099;BME280;62818;49.394;8.686;2023-01-27T05:32:33;100814.28;;;0.77;100.00
60099;BME280;62818;49.394;8.686;2023-01-27T05:33:33;100809.81;;;0.79;100.00
60099;BME280;62818;49.394;8.686;2023-01-27T05:34:34;100819.94;;;0.84;100.00
60099;BME280;62818;49.394;8.686;2023-01-27T05:35:35;100819.41;;;0.79;100.00
60099;BME280;62818;49.394;8.686;2023-01-27T05:36:35;100818.66;;;0.89;100.00
60099;BME280;62818;49.394;8.686;2023-01-27T05:37:36;100828.06;;;1.04;100.00